| time (UTC) | temp F | wind direction | speed MPH | gust MPH | rain 1hr in | rain 24hr in | rain mn in | humidity % | barometer mb |
| 20260507083033 | 44 | 174 | 1.0 | 4.0 | 0.00 | 0.00 | 0.00 | 73 | 1016.7 |
| 20260507081531 | 45 | 176 | 0.0 | 3.0 | 0.00 | 0.00 | 0.00 | 71 | 1016.8 |
| 20260507080130 | 46 | 167 | 0.0 | 6.0 | 0.00 | 0.00 | 0.00 | 68 | 1016.8 |
| 20260507074526 | 47 | 174 | 1.0 | 5.0 | 0.00 | 0.00 | 0.00 | 67 | 1016.9 |
| 20260507073023 | 45 | 167 | 0.0 | 7.0 | 0.00 | 0.00 | 0.00 | 69 | 1016.9 |
| 20260507071521 | 44 | 181 | 1.0 | 4.0 | 0.00 | 0.00 | 0.00 | 70 | 1017.0 |
| 20260507070027 | 44 | 165 | 0.0 | 7.0 | 0.00 | 0.00 | 0.00 | 72 | 1017.0 |
| 20260507064515 | 42 | 155 | 0.0 | 3.0 | 0.00 | 0.00 | 0.00 | 76 | 1016.9 |
| 20260507063012 | 42 | 163 | 0.0 | 3.0 | 0.00 | 0.00 | 0.00 | 80 | 1017.0 |
| 20260507061511 | 42 | 167 | 0.0 | 4.0 | 0.00 | 0.00 | 0.00 | 81 | 1017.1 |
| 20260507060007 | 42 | 176 | 2.0 | 3.0 | 0.00 | 0.00 | 0.00 | 82 | 1017.2 |
| 20260507054537 | 43 | 185 | 0.0 | 3.0 | 0.00 | 0.00 | 0.00 | 83 | 1017.2 |
| 20260507053135 | 43 | 171 | 0.0 | 3.0 | 0.00 | 0.00 | 0.00 | 83 | 1017.1 |
| 20260507051531 | 44 | 169 | 1.0 | 4.0 | 0.00 | 0.00 | 0.00 | 84 | 1017.1 |
| 20260507050028 | 44 | 178 | 3.0 | 4.0 | 0.00 | 0.00 | 0.00 | 83 | 1017.0 |
| 20260507044523 | 43 | 173 | 2.0 | 3.0 | 0.00 | 0.00 | 0.00 | 83 | 1017.0 |
| 20260507043024 | 43 | 173 | 0.0 | 2.0 | 0.00 | 0.00 | 0.00 | 86 | 1017.0 |
| 20260507041552 | 43 | 172 | 0.0 | 2.0 | 0.00 | 0.00 | 0.00 | 86 | 1016.9 |
| 20260507040051 | 44 | 171 | 0.0 | 2.0 | 0.00 | 0.00 | 0.00 | 84 | 1017.0 |
| 20260507034539 | 44 | 171 | 0.0 | 2.0 | 0.00 | 0.00 | 0.00 | 85 | 1016.6 |
| 20260507033035 | 46 | 171 | 0.0 | 1.0 | 0.00 | 0.00 | 0.00 | 83 | 1016.4 |
| 20260507031529 | 46 | 171 | 0.0 | 4.0 | 0.00 | 0.00 | 0.00 | 83 | 1016.3 |
| 20260507030025 | 48 | 174 | 0.0 | 3.0 | 0.00 | 0.00 | 0.00 | 81 | 1016.1 |
| 20260507024517 | 49 | 171 | 0.0 | 2.0 | 0.00 | 0.00 | 0.00 | 78 | 1016.2 |
| 20260507023013 | 50 | 169 | 0.0 | 1.0 | 0.00 | 0.00 | 0.00 | 77 | 1016.2 |
| 20260507021510 | 51 | 169 | 0.0 | 2.0 | 0.00 | 0.00 | 0.00 | 74 | 1016.2 |
| 20260507020008 | 53 | 169 | 0.0 | 4.0 | 0.00 | 0.00 | 0.00 | 70 | 1016.3 |
| 20260507014503 | 53 | 193 | 0.0 | 2.0 | 0.00 | 0.00 | 0.00 | 65 | 1016.2 |
| 20260507013006 | 54 | 92 | 0.0 | 1.0 | 0.00 | 0.00 | 0.00 | 65 | 1016.2 |
| 20260507011601 | 55 | 296 | 0.0 | 3.0 | 0.00 | 0.00 | 0.00 | 65 | 1016.2 |
| 20260507004604 | 57 | 140 | 0.0 | 4.0 | 0.00 | 0.00 | 0.00 | 60 | 1016.0 |
| 20260507003054 | 59 | 120 | 0.0 | 4.0 | 0.00 | 0.00 | 0.00 | 57 | 1016.1 |
| 20260507001552 | 60 | 118 | 0.0 | 3.0 | 0.00 | 0.00 | 0.00 | 56 | 1015.7 |
| 20260507000051 | 61 | 305 | 1.0 | 4.0 | 0.00 | 0.00 | 0.00 | 55 | 1015.8 |
| 20260506234517 | 61 | 155 | 0.0 | 5.0 | 0.00 | 0.00 | 0.00 | 57 | 1015.8 |
| 20260506233015 | 60 | 194 | 0.0 | 5.0 | 0.00 | 0.00 | 0.00 | 55 | 1015.9 |
| 20260506231510 | 61 | 102 | 0.0 | 3.0 | 0.00 | 0.00 | 0.00 | 53 | 1016.0 |
| 20260506230009 | 61 | 100 | 0.0 | 3.0 | 0.00 | 0.00 | 0.00 | 53 | 1016.0 |
| 20260506224503 | 61 | 302 | 2.0 | 7.0 | 0.00 | 0.00 | 0.00 | 53 | 1016.2 |
| 20260506223103 | 62 | 98 | 0.0 | 5.0 | 0.00 | 0.00 | 0.00 | 53 | 1016.3 |
| 20260506221529 | 63 | 48 | 0.0 | 3.0 | 0.00 | 0.00 | 0.00 | 55 | 1016.4 |
| 20260506220027 | 62 | 80 | 1.0 | 6.0 | 0.00 | 0.00 | 0.00 | 54 | 1016.8 |
| 20260506214534 | 61 | 2 | 0.0 | 4.0 | 0.00 | 0.00 | 0.00 | 56 | 1017.0 |
| 20260506213020 | 61 | 72 | 0.0 | 5.0 | 0.00 | 0.00 | 0.00 | 55 | 1017.2 |
| 20260506211515 | 62 | 5 | 0.0 | 3.0 | 0.00 | 0.00 | 0.00 | 57 | 1017.3 |
| 20260506210019 | 62 | 286 | 1.0 | 7.0 | 0.00 | 0.00 | 0.00 | 57 | 1017.2 |
| 20260506204508 | 61 | 321 | 1.0 | 4.0 | 0.00 | 0.00 | 0.00 | 60 | 1017.4 |
| 20260506203003 | 60 | 8 | 0.0 | 2.0 | 0.00 | 0.00 | 0.00 | 60 | 1017.6 |
| 20260506201600 | 60 | 342 | 0.0 | 5.0 | 0.00 | 0.00 | 0.00 | 61 | 1017.6 |
| 20260506200058 | 60 | 65 | 0.0 | 1.0 | 0.00 | 0.00 | 0.00 | 60 | 1017.7 |
| 20260506194557 | 60 | 349 | 0.0 | 4.0 | 0.00 | 0.00 | 0.00 | 61 | 1017.9 |
| 20260506193022 | 59 | 135 | 0.0 | 6.0 | 0.00 | 0.00 | 0.00 | 60 | 1017.9 |
| 20260506191520 | 60 | 15 | 1.0 | 5.0 | 0.00 | 0.00 | 0.00 | 57 | 1018.0 |
| 20260506190014 | 60 | 72 | 0.0 | 4.0 | 0.00 | 0.00 | 0.00 | 54 | 1018.1 |
| 20260506184510 | 58 | 307 | 0.0 | 1.0 | 0.00 | 0.00 | 0.00 | 58 | 1018.3 |
| 20260506183013 | 58 | 336 | 2.0 | 7.0 | 0.00 | 0.00 | 0.00 | 53 | 1018.3 |
| 20260506181508 | 59 | 338 | 1.0 | 4.0 | 0.00 | 0.00 | 0.00 | 55 | 1018.4 |
| 20260506180100 | 58 | 46 | 1.0 | 6.0 | 0.00 | 0.00 | 0.00 | 57 | 1018.3 |
| 20260506174554 | 58 | 80 | 1.0 | 6.0 | 0.00 | 0.03 | 0.00 | 53 | 1018.3 |
| 20260506173058 | 58 | 92 | 0.0 | 4.0 | 0.00 | 0.03 | 0.00 | 52 | 1018.5 |
| 20260506171543 | 58 | 86 | 0.0 | 1.0 | 0.00 | 0.03 | 0.00 | 50 | 1018.4 |
| 20260506170039 | 58 | 349 | 2.0 | 6.0 | 0.00 | 0.03 | 0.00 | 49 | 1018.2 |
| 20260506164536 | 57 | 347 | 0.0 | 3.0 | 0.00 | 0.11 | 0.00 | 53 | 1018.1 |
| 20260506163025 | 57 | 304 | 0.0 | 2.0 | 0.00 | 0.11 | 0.00 | 53 | 1018.4 |
| 20260506161521 | 54 | 324 | 0.0 | 2.0 | 0.00 | 0.11 | 0.00 | 58 | 1018.3 |
| 20260506160012 | 51 | 347 | 0.0 | 2.0 | 0.00 | 0.11 | 0.00 | 71 | 1018.4 |
| 20260506154506 | 49 | 226 | 0.0 | 2.0 | 0.00 | 0.13 | 0.11 | 70 | 1018.2 |
| 20260506153114 | 45 | 167 | 0.0 | 0.0 | 0.00 | 0.13 | 0.11 | 93 | 1018.2 |
| 20260506151556 | 42 | 167 | 0.0 | 0.0 | 0.00 | 0.13 | 0.11 | 96 | 1018.1 |
| 20260506150058 | 39 | 167 | 0.0 | 0.0 | 0.00 | 0.13 | 0.11 | 96 | 1018.1 |
| 20260506144556 | 38 | 167 | 0.0 | 1.0 | 0.00 | 0.20 | 0.11 | 96 | 1018.1 |
| 20260506143049 | 37 | 167 | 0.0 | 2.0 | 0.00 | 0.20 | 0.11 | 96 | 1018.1 |
| 20260506141547 | 35 | 167 | 0.0 | 2.0 | 0.00 | 0.20 | 0.11 | 96 | 1018.1 |
| 20260506140017 | 34 | 167 | 1.0 | 2.0 | 0.00 | 0.20 | 0.11 | 96 | 1018.0 |
| 20260506134511 | 33 | 167 | 1.0 | 2.0 | 0.00 | 0.27 | 0.11 | 96 | 1017.7 |
| 20260506133007 | 33 | 168 | 0.0 | 2.0 | 0.00 | 0.27 | 0.11 | 95 | 1017.6 |
| 20260506131504 | 32 | 160 | 0.0 | 4.0 | 0.00 | 0.27 | 0.11 | 95 | 1017.4 |
| 20260506130002 | 33 | 174 | 2.0 | 3.0 | 0.00 | 0.27 | 0.11 | 96 | 1017.2 |
| 20260506124605 | 32 | 187 | 1.0 | 3.0 | 0.00 | 0.30 | 0.11 | 96 | 1017.0 |
| 20260506123053 | 33 | 162 | 0.0 | 3.0 | 0.00 | 0.30 | 0.11 | 96 | 1016.8 |
| 20260506121551 | 33 | 172 | 2.0 | 3.0 | 0.00 | 0.30 | 0.11 | 95 | 1016.7 |
| 20260506120049 | 32 | 176 | 1.0 | 3.0 | 0.00 | 0.30 | 0.11 | 95 | 1016.6 |
| 20260506114547 | 32 | 169 | 1.0 | 4.0 | 0.00 | 0.30 | 0.11 | 95 | 1016.6 |
| 20260506113027 | 32 | 171 | 1.0 | 2.0 | 0.00 | 0.30 | 0.11 | 95 | 1016.5 |
| 20260506111513 | 32 | 172 | 1.0 | 2.0 | 0.00 | 0.30 | 0.11 | 95 | 1016.4 |
| 20260506110011 | 32 | 171 | 1.0 | 2.0 | 0.00 | 0.30 | 0.11 | 95 | 1016.3 |
| 20260506104506 | 32 | 171 | 0.0 | 2.0 | 0.00 | 0.31 | 0.11 | 95 | 1016.2 |
| 20260506103008 | 32 | 178 | 2.0 | 4.0 | 0.00 | 0.31 | 0.11 | 95 | 1016.2 |
| 20260506101502 | 32 | 169 | 0.0 | 3.0 | 0.00 | 0.31 | 0.11 | 95 | 1016.1 |
| 20260506100028 | 32 | 177 | 0.0 | 2.0 | 0.00 | 0.31 | 0.11 | 95 | 1016.2 |
| 20260506094527 | 33 | 169 | 0.0 | 2.0 | 0.00 | 0.31 | 0.11 | 95 | 1016.1 |
| 20260506093021 | 33 | 170 | 0.0 | 4.0 | 0.00 | 0.31 | 0.11 | 95 | 1016.3 |
| 20260506091517 | 32 | 180 | 0.0 | 3.0 | 0.00 | 0.31 | 0.11 | 95 | 1016.3 |
| 20260506090019 | 33 | 183 | 0.0 | 2.0 | 0.00 | 0.31 | 0.11 | 94 | 1016.3 |
| 20260506084506 | 34 | 186 | 1.0 | 3.0 | 0.00 | 0.31 | 0.11 | 94 | 1016.5 |